This is the latest recevied weather packets stored in our database for station/object KD7JB. If no packets are shown the sender has not sent any weather packets the latest 10 day(s).
| Time | Temp. | Humidity | Pressure | Rain* | Wind** | Luminosity | Snow |
|---|---|---|---|---|---|---|---|
| 1777433347 | 8.33° C | 61% | 1179 hPa | 0 mm | - | 0 W/m² | - |
| 1777433043 | 7.78° C | 64% | 1179 hPa | 0 mm | - | 0 W/m² | - |
| 1777432738 | 7.78° C | 65% | 1179 hPa | 0 mm | - | 1 W/m² | - |
| 1777432434 | 8.33° C | 64% | 1178.9 hPa | 0 mm | - | 2 W/m² | - |
| 1777432130 | 8.33° C | 64% | 1179 hPa | 0 mm | - | 3 W/m² | - |
| 1777431521 | 8.89° C | 62% | 1178.9 hPa | 0 mm | - | 8 W/m² | - |
| 1777430305 | 9.44° C | 59% | 1178.8 hPa | 0 mm | - | 21 W/m² | - |
| 1777429094 | 8.89° C | 59% | 1178.4 hPa | 0 mm | - | 37 W/m² | - |
| 1777426058 | 10° C | 58% | 1178.4 hPa | 0 mm | - | 122 W/m² | - |
| 1777425753 | 10° C | 57% | 1178.3 hPa | 0 mm | - | 128 W/m² | - |
| 1777424536 | 10° C | 55% | 1178.4 hPa | 0 mm | - | 162 W/m² | - |
| 1777423929 | 10° C | 57% | 1178.2 hPa | 0 mm | - | 128 W/m² | - |
| 1777423015 | 10.56° C | 57% | 1178.2 hPa | 0 mm | - | 182 W/m² | - |
| 1777421497 | 10.56° C | 55% | 1178.2 hPa | 0 mm | - | 228 W/m² | - |
| 1777414522 | 11.11° C | 50% | 1178.4 hPa | 0 mm | - | 606 W/m² | - |
| 1777414221 | 11.11° C | 51% | 1178.5 hPa | 0 mm | - | 535 W/m² | - |
| 1777411797 | 11.11° C | 51% | 1178.7 hPa | 0 mm | - | 609 W/m² | - |
| 1777411496 | 11.11° C | 53% | 1178.7 hPa | 0 mm | - | 570 W/m² | - |
| 1777411196 | 10.56° C | 54% | 1178.5 hPa | 0 mm | - | 588 W/m² | - |
| 1777410591 | 11.11° C | 52% | 1178.7 hPa | 0 mm | - | 683 W/m² | - |
| 1777410291 | 10.56° C | 55% | 1178.5 hPa | 0 mm | - | 743 W/m² | - |
| 1777409986 | 11.11° C | 55% | 1178.5 hPa | 0 mm | - | 719 W/m² | - |
| 1777408161 | 10° C | 55% | 1178.3 hPa | 0 mm | - | 399 W/m² | - |
| 1777407856 | 10° C | 54% | 1178.4 hPa | 0 mm | - | 388 W/m² | - |
| 1777407554 | 10° C | 54% | 1178.4 hPa | 0 mm | - | 465 W/m² | - |
* Rain latest hour (hover to see other rain measurements)
** Current wind speed in m/s (hover to see current wind gust speed)